Alys Beach, Florida
Current Conditions -  °F | °C
As of 5:53 AM on Friday 19 Dec 2014 (Local Time) from KECP Reporting Station
Overcast Overcast  
Wind Chill:   Ceiling: 4900
Heat Index:   Visibility: 10mi
Dew Point:   Wind: 6mph
Humidity: 77%   Direction: 30°NNE
Pressure: 30.12"   Gusts: NA
Location:  30.2534°N, 85.9486°W
Report Text: KECP 191153Z 03005KT 10SM OVC049 09/05 A3012 RMK AO2 SLP210 T00890050 10100 20072 53003 $
Loading
Personal Weather Stations






























Interactive Weather Map New forecast layout! Learn more

10-Day Weather Forecast

Advertisements
Track Severe Weather on mobile